Sacramento, CA

8:42 PM PDT on August 22, 2014 (GMT -0700)
Sacramento Executive | Change Station
CLOSE
Current Station
Airport
Location: Sacramento,
Elevation: 26 ft
Nearby Weather Stations

Elev 26 ft 38.51 °N, 121.50 °W | Updated 49 minutes ago

Clear
Clear
73 °F
Feels Like 73 °F
N
9
Wind Variable Wind from SSW

Today
High -- | Low -- °F
--% Chance of Precip.
Yesterday
High -- | Low -- °F
Precip. -- in
6:26 AM 7:50 PM
Waning Crescent, 5% visible
Pressure 29.83 in
Visibility 10.0 miles
Clouds Clear
Dew Point 58 °F
Humidity 59%
Rainfall 0.00 in
Snow Depth Not available.
UV 0 out of 12
Pollen 7.30 out of 12
Ozone Good
PM2.5 Good
Flu Activity Not available.
METAR KSAC 230253Z AUTO 20008KT 10SM CLR 23/14 A2982 RMK AO2 SLP099 T02280144 53005 TSNO

More Conditions Fewer Conditions

Pressure 29.83 in
Visibility 10.0 miles
Clouds Clear
Dew Point 58 °F
Humidity 59%
Rainfall 0.00 in
Snow Depth Not available.
UV 0 out of 12
Pollen 7.30 out of 12
Ozone Good
PM2.5 Good
Flu Activity Not available.
METAR KSAC 230253Z AUTO 20008KT 10SM CLR 23/14 A2982 RMK AO2 SLP099 T02280144 53005 TSNO

More Conditions Fewer Conditions

10-Day Weather Forecast

Almanac

Astronomy

Aug. 22, 2014 Rise Set
Actual Time 6:26 AM PDT 7:50 PM PDT
Civil Twilight 5:58 AM PDT 8:18 PM PDT
Nautical Twilight 5:25 AM PDT 8:51 PM PDT
Astronomical Twilight 4:50 AM PDT 9:26 PM PDT
Moon 3:54 AM PDT (8/22) 6:01 PM PDT (8/22)
Length of Visible Light 14h 19m
Length of Day
13h 23m
Tomorrow will be 2m 17s shorter.
Waning Crescent, 5% of the Moon is Illuminated
Today
Waning Crescent
Aug 25
New
Sep 2
First Quarter
Sep 8
Full
Sep 15
Last Quarter

Today's Extremes

State Highs State Lows

Community

WunderPhotos

Upload Photos

1,746,352 photos uploaded!

WunderBlogs® & News

Nearby

Air Quality

  Air Quality AQ Index Pollutant
Yesterday Good
OZONE
Yesterday Good
PM10
Current Good
PM2.5
Current Good
OZONE
Friday Moderate
OZONE
Saturday Moderate
OZONE
Sunday Moderate
OZONE
Monday Moderate
OZONE
Tuesday Moderate
OZONE
Wednesday Moderate
OZONE

Snow Depth

Station Depth Elevation
Echo Peak 1 in 7800 ft
Tahoe City Cross 0 in 6750 ft
Hagan's Meadow 0 in 8000 ft
Leavitt Lake 0 in 9400 ft
Monitor Pass 0 in 8350 ft

Earthquake Activity

City Distance Mag. Time & Date
Berkeley, California 60 miles 2.6 7:41 PM PDT
2014-08-16
Minimum magnitude displayed is 2.5.

Coastal Water Temperatures

Place Temperature
San Francisco, CA 64.0 °F
Richmond, CA 66.9 °F
Port Chicago, CA 70.0 °F

Nearby Weather Stations